August 2021: Check out the pages added or updated for Weather Warnings, Sea Area Forecasts, Marine Warnings & Sea Crossings Forecasts.

METEOalarm.eu Weather warnings: Dublin

 No special awareness required

Ireland METAR reports

 

EIDW - Dublin Airport, Ireland
Distance from station: WNW 13km
Updated: 20/09/2021 11:00
Partly cloudy
Partly cloudy
 Wind from WSW
Wind: WSW 13 km/h
Temperature: 15°C
Dew Point: 12°C
Humidity: 82%
Barometer: 1025 hPa
Clouds: Partly cloudy
Visibility: 10 km
Cloud details: Partly cloudy 274 m
Partly cloudy 7620 m
2021/09/20 10:00 EIDW 201000Z 24007KT 190V280 9999 SCT009 SCT250 15/12 Q1025 NOSIG
EIME - Casement (mil), Ireland
Distance from station: WSW 26km
Updated: 20/09/2021 11:00
Mostly cloudy
Mostly cloudy
 Wind from WSW
Wind: WSW 17 km/h
Temperature: 16°C
Dew Point: 13°C
Humidity: 83%
Barometer: 1026 hPa
Clouds: Mostly cloudy
Visibility: 10 km
Cloud details: Mostly cloudy 396 m
2021/09/20 10:00 EIME 201000Z 24009KT 9999 BKN013 16/13 Q1026
 
EGAC - Belfast Harbour, United Kingdom
Distance from station: N 140km
Updated: 20/09/2021 11:20
Clear
Clear
 Wind from SSW
Wind: SSW 13 km/h
Temperature: 15°C
Dew Point: 12°C
Humidity: 82%
Barometer: 1025 hPa
Clouds: Clear
Visibility: 10 km
2021/09/20 10:20 EGAC 201020Z AUTO 20007KT 9999 NCD 15/12 Q1025
EGAA - Belfast/Aldergro, United Kingdom
Distance from station: N 141km
Updated: 20/09/2021 11:20
Overcast
Overcast
 Wind from SW
Wind: SW 11 km/h
Temperature: 13°C
Dew Point: 12°C
Humidity: 94%
Barometer: 1025 hPa
Clouds: Overcast
Visibility: 6 km
Cloud details: Overcast 30 m
2021/09/20 10:20 EGAA 201020Z AUTO 22006KT 180V250 6000 OVC001 13/12 Q1025 REUP
 
EIWF - Waterford Arpt, Ireland
Distance from station: SSW 148km
Updated: 20/09/2021 11:00
Few Clouds
Few Clouds
 Wind from NNW
Wind: NNW 9 km/h
Temperature: 17°C
Dew Point: 14°C
Humidity: 83%
Barometer: 1026 hPa
Clouds: Few Clouds
Visibility: 10 km
Cloud details: Few Clouds 1341 m
2021/09/20 10:00 EIWF 201000Z 34005KT 270V020 9999 FEW044 17/14 Q1026
EIKN - Connaught Apt, Ireland
Distance from station: WNW 191km
Updated: 20/09/2021 11:00
Mostly cloudy
Mostly cloudy
 Wind from W
Wind: W 11 km/h
Temperature: 14°C
Dew Point: 13°C
Humidity: 94%
Barometer: 1025 hPa
Clouds: Mostly cloudy
Visibility: 10 km
Cloud details: Few Clouds 305 m
Partly cloudy 732 m
Mostly cloudy 975 m
2021/09/20 10:00 EIKN 201000Z 27006KT 220V310 9999 FEW010 SCT024 BKN032 14/13 Q1025 NOSIG
 
EISG - Sligo Arpt, Ireland
Distance from station: WNW 195km
Updated: 20/09/2021 11:00
Overcast
Overcast
 Wind from W
Wind: W 11 km/h
Temperature: 14°C
Dew Point: 13°C
Humidity: 94%
Barometer: 1025 hPa
Clouds: Overcast
Visibility: 9 km
Cloud details: Partly cloudy 671 m
Overcast 1311 m
2021/09/20 10:00 EISG 201000Z 26006KT 9000 SCT022 OVC043 14/13 Q1025
EGAE - Eglinton/Londond, United Kingdom
Distance from station: NNW 198km
Updated: 20/09/2021 11:20
Mostly cloudy
Mostly cloudy
 Wind from WSW
Wind: WSW 26 km/h
Temperature: 17°C
Dew Point: 15°C
Humidity: 88%
Barometer: 1024 hPa
Clouds: Mostly cloudy
Visibility: 10 km
Cloud details: Few Clouds 183 m
Partly cloudy 427 m
Mostly cloudy 1341 m
2021/09/20 10:20 EGAE 201020Z 24014KT 9999 FEW006 SCT014 BKN044 17/15 Q1024
 
EINN - Shannon Airport, Ireland
Distance from station: WSW 204km
Updated: 20/09/2021 11:00
Light drizzle, Mostly cloudy
Light drizzle, Mostly cloudy
 Wind from WSW
Wind: WSW 15 km/h
Temperature: 15°C
Dew Point: 14°C
Humidity: 94%
Barometer: 1026 hPa
Summary: Light Drizzle
Clouds: Mostly cloudy
Visibility: 8 km
Cloud details: Few Clouds 213 m
Partly cloudy 305 m
Mostly cloudy 488 m
2021/09/20 10:00 EINN 201000Z 25008KT 8000 -DZ FEW007 SCT010 BKN016 15/14 Q1026 NOSIG
EICK - Cork Arpt/Corcai, Ireland
Distance from station: SW 234km
Updated: 20/09/2021 11:00
Mostly cloudy
Mostly cloudy
 Wind from NW
Wind: NW 13 km/h
Temperature: 15°C
Dew Point: 13°C
Humidity: 88%
Barometer: 1027 hPa
Clouds: Mostly cloudy
Visibility: 10 km
Cloud details: Mostly cloudy 671 m
Mostly cloudy 1524 m
2021/09/20 10:00 EICK 201000Z 31007KT 9999 BKN022 BKN050 15/13 Q1027 NOSIG